Time;durP1;ratioP1;P1;durP2;ratioP2;P2;SDS_P1;SDS_P2;PMS_P1;PMS_P2;Temp;Humidity;BMP_temperature;BMP_pressure;BME280_temperature;BME280_humidity;BME280_pressure;Samples;Min_cycle;Max_cycle;Signal;HPM_P1;HPM_P2
2022/09/27 00:01:51;;;;;;;10.02;3.95;;;;;;;8.87;100.00;99670.66;5339642;27;20114;-81
2022/09/27 00:04:22;;;;;;;13.05;3.90;;;;;;;8.89;100.00;99677.50;5339543;27;20055;-81
2022/09/27 00:06:54;;;;;;;11.30;2.83;;;;;;;8.87;100.00;99670.66;5340855;27;20018;-80
2022/09/27 00:09:25;;;;;;;12.25;2.80;;;;;;;8.88;100.00;99675.00;5342401;27;20028;-81
2022/09/27 00:11:56;;;;;;;9.63;2.80;;;;;;;8.86;100.00;99677.81;5339044;27;20020;-81
2022/09/27 00:14:28;;;;;;;11.85;3.20;;;;;;;8.84;100.00;99679.78;5341099;27;20084;-81
2022/09/27 00:16:59;;;;;;;7.78;2.78;;;;;;;8.82;100.00;99678.31;5339436;27;20118;-81
2022/09/27 00:19:30;;;;;;;11.18;2.80;;;;;;;8.79;100.00;99681.28;5341895;27;20053;-80
2022/09/27 00:22:02;;;;;;;11.52;2.85;;;;;;;8.83;100.00;99688.75;5339026;27;20032;-81
2022/09/27 00:24:34;;;;;;;14.35;2.50;;;;;;;8.77;100.00;99692.06;5324869;27;20016;-80
2022/09/27 00:27:05;;;;;;;8.60;2.50;;;;;;;8.79;100.00;99698.06;5344439;27;20019;-80
2022/09/27 00:29:36;;;;;;;6.70;3.13;;;;;;;8.80;100.00;99706.84;5346753;27;20442;-80
2022/09/27 00:32:08;;;;;;;10.00;2.30;;;;;;;8.79;100.00;99724.63;5343784;27;20031;-80
2022/09/27 00:34:40;;;;;;;14.15;3.00;;;;;;;8.83;100.00;99722.50;5343854;27;20111;-80
2022/09/27 00:37:11;;;;;;;10.30;2.72;;;;;;;8.83;100.00;99720.66;5339992;27;20043;-81
2022/09/27 00:39:43;;;;;;;6.95;2.40;;;;;;;8.83;100.00;99718.00;5340464;27;20042;-81
2022/09/27 00:42:15;;;;;;;9.57;2.50;;;;;;;8.79;100.00;99710.53;5339933;27;20032;-81
2022/09/27 00:44:59;;;;;;;9.90;2.40;;;;;;;8.75;100.00;99711.81;5336267;27;20390;-81
2022/09/27 00:47:46;;;;;;;7.88;2.15;;;;;;;8.79;100.00;99718.50;5321158;27;20066;-81
2022/09/27 00:50:24;;;;;;;11.57;2.47;;;;;;;8.82;100.00;99716.34;5340225;27;20412;-81
2022/09/27 00:53:06;;;;;;;7.70;2.30;;;;;;;8.83;100.00;99710.03;5339274;27;20023;-81
2022/09/27 00:56:01;;;;;;;8.85;2.20;;;;;;;8.86;100.00;99707.06;5340389;27;20016;-80
2022/09/27 00:58:38;;;;;;;5.50;2.08;;;;;;;8.83;100.00;99710.03;5341824;27;20799;-81
2022/09/27 01:01:12;;;;;;;6.60;2.28;;;;;;;8.74;100.00;99696.88;5339495;27;20115;-81
2022/09/27 01:04:02;;;;;;;5.53;2.03;;;;;;;8.77;100.00;99710.69;5340419;27;20030;-80
2022/09/27 01:06:33;;;;;;;8.80;2.78;;;;;;;8.64;100.00;99703.13;5340125;27;20032;-81
2022/09/27 01:09:08;;;;;;;6.63;1.92;;;;;;;8.63;100.00;99705.94;5340991;27;20077;-80
2022/09/27 01:11:58;;;;;;;6.55;1.80;;;;;;;8.62;100.00;99701.63;5336980;27;20469;-79
2022/09/27 01:14:35;;;;;;;4.30;1.23;;;;;;;8.63;100.00;99706.78;5336908;27;20487;-81
2022/09/27 01:17:20;;;;;;;5.13;1.33;;;;;;;8.67;100.00;99701.97;5340156;27;20450;-80
2022/09/27 01:20:07;;;;;;;9.65;1.63;;;;;;;8.72;100.00;99710.31;5336404;27;22169;-80
2022/09/27 01:23:11;;;;;;;7.20;1.63;;;;;;;8.62;100.00;99709.59;5340967;27;20031;-81
2022/09/27 01:25:51;;;;;;;3.47;1.48;;;;;;;8.50;100.00;99709.00;5313512;27;20046;-80
2022/09/27 01:28:42;;;;;;;7.82;1.75;;;;;;;8.48;100.00;99716.31;5343104;27;20080;-80
2022/09/27 01:31:40;;;;;;;4.90;1.25;;;;;;;8.54;100.00;99722.81;5296242;27;20089;-80
2022/09/27 01:34:24;;;;;;;6.53;1.65;;;;;;;8.56;100.00;99727.00;5337914;27;20019;-80
2022/09/27 01:36:56;;;;;;;4.88;1.50;;;;;;;8.48;100.00;99733.09;5337736;27;20031;-80
2022/09/27 01:39:43;;;;;;;6.07;1.45;;;;;;;8.43;100.00;99723.91;5323275;27;20035;-80
2022/09/27 01:42:42;;;;;;;6.50;1.60;;;;;;;8.47;100.00;99733.25;5339198;27;20453;-80
2022/09/27 01:45:27;;;;;;;5.07;2.05;;;;;;;8.45;100.00;99729.91;5336317;27;20032;-80
2022/09/27 01:48:03;;;;;;;6.82;1.95;;;;;;;8.45;100.00;99729.91;5340117;27;20858;-80
2022/09/27 01:50:44;;;;;;;9.48;2.03;;;;;;;8.29;100.00;99736.75;5339091;27;20058;-80
2022/09/27 01:53:24;;;;;;;8.07;1.70;;;;;;;8.20;100.00;99734.19;5338733;27;20023;-80
2022/09/27 01:55:56;;;;;;;5.20;2.15;;;;;;;8.20;100.00;99755.44;5339176;27;20036;-80
2022/09/27 01:58:40;;;;;;;7.45;1.30;;;;;;;8.21;100.00;99752.63;5340658;27;20020;-80
2022/09/27 02:01:14;;;;;;;8.30;1.45;;;;;;;8.23;100.00;99733.88;5321297;27;20028;-81
2022/09/27 02:03:50;;;;;;;10.77;1.70;;;;;;;8.25;100.00;99731.91;5339426;27;20760;-81
2022/09/27 02:06:27;;;;;;;7.03;2.17;;;;;;;8.14;100.00;99725.00;5339156;27;20064;-81
2022/09/27 02:09:15;;;;;;;4.50;0.90;;;;;;;8.12;100.00;99735.78;5343246;27;20039;-81
2022/09/27 02:11:51;;;;;;;6.50;1.20;;;;;;;8.13;100.00;99739.28;5339967;27;20028;-80
2022/09/27 02:14:41;;;;;;;6.55;1.52;;;;;;;8.08;100.00;99752.16;5321429;27;20039;-80
2022/09/27 02:17:36;;;;;;;6.93;1.17;;;;;;;8.04;100.00;99743.69;5342553;27;20127;-80
2022/09/27 02:20:33;;;;;;;4.82;1.27;;;;;;;7.98;100.00;99741.66;5322629;27;20042;-80
2022/09/27 02:23:17;;;;;;;3.60;1.05;;;;;;;8.01;100.00;99741.34;5342391;27;20473;-80
2022/09/27 02:26:02;;;;;;;3.50;0.90;;;;;;;7.96;100.00;99743.63;5319790;27;20078;-81
2022/09/27 02:29:28;;;;;;;4.38;1.13;;;;;;;8.00;100.00;99741.50;5345221;27;20068;-81
2022/09/27 02:32:00;;;;;;;9.95;1.90;;;;;;;7.97;100.00;99733.84;5318666;27;20057;-81
2022/09/27 02:34:36;;;;;;;8.38;1.40;;;;;;;7.98;100.00;99749.63;5342733;27;20080;-80
2022/09/27 02:37:08;;;;;;;9.25;1.70;;;;;;;7.94;100.00;99758.84;5342945;27;20027;-80
2022/09/27 02:39:40;;;;;;;7.00;1.50;;;;;;;8.01;100.00;99756.44;5343531;27;20031;-81
2022/09/27 02:42:11;;;;;;;8.90;1.42;;;;;;;7.89;100.00;99755.84;5341865;27;20405;-81
2022/09/27 02:44:43;;;;;;;5.32;1.10;;;;;;;7.83;100.00;99751.13;5340159;27;20030;-80
2022/09/27 02:47:24;;;;;;;9.68;1.35;;;;;;;7.74;100.00;99752.88;5342467;27;20059;-80
2022/09/27 02:50:25;;;;;;;7.57;1.67;;;;;;;7.72;100.00;99745.06;5343100;27;20032;-80
2022/09/27 02:53:15;;;;;;;5.13;1.63;;;;;;;7.74;100.00;99751.03;5322373;27;20028;-80
2022/09/27 02:56:05;;;;;;;6.43;1.70;;;;;;;7.62;100.00;99744.28;5339169;27;20031;-81
2022/09/27 02:59:05;;;;;;;5.97;1.88;;;;;;;7.64;100.00;99746.78;5343757;27;20026;-80
2022/09/27 03:02:10;;;;;;;6.93;1.65;;;;;;;7.65;100.00;99751.13;5341505;27;20039;-80
2022/09/27 03:04:49;;;;;;;8.95;1.83;;;;;;;7.63;100.00;99750.44;5308734;27;20101;-80
2022/09/27 03:07:21;;;;;;;5.28;1.52;;;;;;;7.65;100.00;99745.81;5343369;27;20443;-80
2022/09/27 03:09:53;;;;;;;7.47;1.88;;;;;;;7.68;100.00;99741.03;5341207;27;20039;-80
2022/09/27 03:12:25;;;;;;;9.40;2.13;;;;;;;7.68;100.00;99742.84;5341620;27;20119;-80
2022/09/27 03:14:58;;;;;;;10.52;1.92;;;;;;;7.62;100.00;99732.84;5344918;27;20024;-80
2022/09/27 03:17:30;;;;;;;11.07;2.20;;;;;;;7.61;100.00;99739.97;5345635;27;20035;-79
2022/09/27 03:20:02;;;;;;;6.97;2.88;;;;;;;7.62;100.00;99732.84;5340931;27;20024;-80
2022/09/27 03:22:34;;;;;;;10.43;2.22;;;;;;;7.54;100.00;99749.53;5323368;27;20035;-81
2022/09/27 03:25:06;;;;;;;7.68;1.90;;;;;;;7.56;100.00;99752.84;5339934;27;20938;-80
2022/09/27 03:27:38;;;;;;;7.18;2.10;;;;;;;7.59;100.00;99760.53;5342683;27;20066;-81
2022/09/27 03:30:11;;;;;;;7.20;2.35;;;;;;;7.55;100.00;99757.31;5340241;27;20067;-81
2022/09/27 03:32:43;;;;;;;7.97;2.33;;;;;;;7.66;100.00;99761.59;5328080;27;20339;-80
2022/09/27 03:35:15;;;;;;;8.85;2.40;;;;;;;7.56;100.00;99751.03;5339994;27;20023;-80
2022/09/27 03:37:46;;;;;;;6.45;2.22;;;;;;;7.69;100.00;99758.63;5338873;27;20030;-80
2022/09/27 03:40:18;;;;;;;10.65;2.67;;;;;;;7.68;100.00;99756.97;5313103;27;20054;-80
2022/09/27 03:42:49;;;;;;;7.95;2.20;;;;;;;7.66;100.00;99753.63;5340378;27;20370;-80
2022/09/27 03:45:21;;;;;;;9.73;2.20;;;;;;;7.76;100.00;99772.13;5341039;27;20030;-80
2022/09/27 03:47:53;;;;;;;6.78;1.92;;;;;;;7.84;100.00;99771.41;5341285;27;20470;-79
2022/09/27 03:50:24;;;;;;;6.97;2.03;;;;;;;7.80;100.00;99776.16;5342109;27;20470;-80
2022/09/27 03:52:56;;;;;;;12.15;2.60;;;;;;;7.79;100.00;99776.31;5340416;27;20065;-80
2022/09/27 03:55:27;;;;;;;8.30;2.00;;;;;;;7.86;100.00;99782.69;5338174;27;20027;-79
2022/09/27 03:57:58;;;;;;;10.90;2.25;;;;;;;7.87;100.00;99792.31;5317737;27;20432;-80
2022/09/27 04:00:31;;;;;;;7.53;2.22;;;;;;;7.84;100.00;99792.63;5325431;27;20123;-80
2022/09/27 04:03:04;;;;;;;9.60;2.47;;;;;;;7.90;100.00;99797.31;5345575;27;20550;-80
2022/09/27 04:05:35;;;;;;;8.43;1.73;;;;;;;7.89;100.00;99806.28;5346626;27;20028;-80
2022/09/27 04:08:06;;;;;;;9.02;1.88;;;;;;;7.86;100.00;99804.75;5346910;27;20024;-80
2022/09/27 04:10:38;;;;;;;11.15;1.88;;;;;;;7.86;100.00;99804.75;5343335;27;20123;-81
2022/09/27 04:13:09;;;;;;;5.45;1.30;;;;;;;7.83;100.00;99807.72;5340930;27;20053;-80
2022/09/27 04:15:42;;;;;;;8.48;1.40;;;;;;;7.83;100.00;99801.56;5342836;27;20024;-80
2022/09/27 04:18:13;;;;;;;6.57;1.20;;;;;;;7.79;100.00;99801.03;5342976;27;20024;-81
2022/09/27 04:20:44;;;;;;;3.65;1.10;;;;;;;7.83;100.00;99802.41;5317228;27;20120;-80
2022/09/27 04:23:16;;;;;;;6.70;1.30;;;;;;;7.73;100.00;99783.91;5342915;27;20023;-81
2022/09/27 04:25:48;;;;;;;7.90;1.17;;;;;;;7.67;100.00;99778.34;5342470;27;20028;-81
2022/09/27 04:28:19;;;;;;;6.22;1.38;;;;;;;7.66;100.00;99769.56;5343034;27;20032;-81
2022/09/27 04:30:50;;;;;;;3.72;0.93;;;;;;;7.67;100.00;99781.00;5343380;27;20028;-81
2022/09/27 04:33:22;;;;;;;3.53;1.23;;;;;;;7.65;100.00;99775.00;5343298;27;20043;-81
2022/09/27 04:38:43;;;;;;;6.90;1.13;;;;;;;7.63;100.00;99769.03;5340401;27;20032;-81
2022/09/27 04:41:15;;;;;;;7.75;1.67;;;;;;;7.60;100.00;99764.00;5341654;27;20062;-81
2022/09/27 04:43:46;;;;;;;5.28;1.10;;;;;;;7.57;100.00;99770.44;5340451;27;20027;-81
2022/09/27 04:46:19;;;;;;;5.32;1.30;;;;;;;7.57;100.00;99775.72;5335825;27;20040;-81
2022/09/27 04:48:50;;;;;;;2.45;0.90;;;;;;;7.62;100.00;99778.78;5340967;27;20027;-80
2022/09/27 04:51:22;;;;;;;7.82;1.35;;;;;;;7.59;100.00;99765.84;5339677;27;20039;-80
2022/09/27 04:53:55;;;;;;;5.07;1.40;;;;;;;7.59;100.00;99781.75;5338472;27;20030;-80
2022/09/27 04:56:27;;;;;;;4.03;1.10;;;;;;;7.53;100.00;99779.69;5321925;27;20030;-80
2022/09/27 04:58:58;;;;;;;5.85;1.30;;;;;;;7.51;100.00;99787.78;5321361;27;20011;-80
2022/09/27 05:01:29;;;;;;;5.32;1.00;;;;;;;7.49;100.00;99802.19;5341288;27;20058;-80
2022/09/27 05:04:01;;;;;;;5.68;1.20;;;;;;;7.51;100.00;99802.88;5337692;27;20031;-80
2022/09/27 05:06:32;;;;;;;6.03;1.15;;;;;;;7.52;100.00;99805.38;5343214;27;20031;-80
2022/09/27 05:09:03;;;;;;;3.42;1.30;;;;;;;7.51;100.00;99811.66;5340138;27;20106;-80
2022/09/27 05:11:36;;;;;;;3.65;1.00;;;;;;;7.55;100.00;99812.22;5341301;27;20354;-80
2022/09/27 05:14:08;;;;;;;6.80;1.15;;;;;;;7.57;100.00;99805.78;5335788;27;20026;-80
2022/09/27 05:16:39;;;;;;;4.95;1.13;;;;;;;7.52;100.00;99805.38;5338698;27;20015;-80
2022/09/27 05:19:10;;;;;;;2.17;1.00;;;;;;;7.51;100.00;99811.66;5341400;27;20039;-80
2022/09/27 05:21:42;;;;;;;5.28;1.00;;;;;;;7.49;100.00;99818.13;5337458;27;20122;-80
2022/09/27 05:24:13;;;;;;;4.30;1.17;;;;;;;7.47;100.00;99802.34;5313693;27;20024;-80
2022/09/27 05:26:46;;;;;;;4.13;1.02;;;;;;;7.51;100.00;99800.22;5339336;27;20047;-80
2022/09/27 05:29:17;;;;;;;5.47;1.35;;;;;;;7.51;100.00;99798.41;5340393;27;20528;-80
2022/09/27 05:31:49;;;;;;;3.92;1.00;;;;;;;7.49;100.00;99803.03;5336997;27;20518;-80
2022/09/27 05:34:21;;;;;;;6.43;1.35;;;;;;;7.52;100.00;99805.38;5336351;27;20035;-80
2022/09/27 05:36:52;;;;;;;3.78;1.20;;;;;;;7.49;100.00;99813.63;5340457;27;20038;-80
2022/09/27 05:39:23;;;;;;;10.10;1.23;;;;;;;7.54;100.00;99794.63;5338449;27;20024;-80
2022/09/27 05:41:56;;;;;;;6.38;1.08;;;;;;;7.49;100.00;99797.72;5341230;27;20123;-80
2022/09/27 05:44:27;;;;;;;5.68;1.23;;;;;;;7.48;100.00;99800.53;5321221;27;20020;-81
2022/09/27 05:47:03;;;;;;;6.40;1.42;;;;;;;7.49;100.00;99805.69;5340822;27;20038;-80
2022/09/27 05:49:34;;;;;;;4.28;1.23;;;;;;;7.61;100.00;99808.97;5339772;27;20019;-81
2022/09/27 05:52:06;;;;;;;3.03;1.10;;;;;;;7.75;100.00;99810.28;5339181;27;20053;-80
2022/09/27 05:54:37;;;;;;;6.70;2.28;;;;;;;8.05;100.00;99819.72;5339442;27;20024;-81
2022/09/27 05:57:08;;;;;;;5.75;2.15;;;;;;;8.02;100.00;99814.72;5340626;27;20043;-81
2022/09/27 05:59:40;;;;;;;5.90;1.60;;;;;;;8.04;100.00;99820.69;5337073;27;20050;-81
2022/09/27 06:02:11;;;;;;;6.93;1.73;;;;;;;8.09;100.00;99820.25;5327280;27;20120;-81
2022/09/27 06:04:42;;;;;;;8.23;1.95;;;;;;;8.25;100.00;99811.59;5349600;27;20157;-80
2022/09/27 06:07:14;;;;;;;3.20;1.48;;;;;;;8.42;100.00;99826.72;5350441;27;20020;-81
2022/09/27 06:09:45;;;;;;;3.58;1.92;;;;;;;8.67;100.00;99824.25;5354776;27;20416;-80
2022/09/27 06:12:19;;;;;;;3.85;1.70;;;;;;;8.49;100.00;99822.47;5333324;27;20026;-81
2022/09/27 06:14:50;;;;;;;4.72;1.70;;;;;;;8.02;100.00;99825.31;5345711;27;20024;-81
2022/09/27 06:17:21;;;;;;;3.60;1.20;;;;;;;7.79;100.00;99814.31;5340691;27;20027;-81
2022/09/27 06:19:53;;;;;;;3.67;1.80;;;;;;;7.70;100.00;99821.34;5350473;27;20020;-80
2022/09/27 06:22:24;;;;;;;2.75;1.70;;;;;;;7.68;100.00;99806.53;5349952;27;20031;-81
2022/09/27 06:24:56;;;;;;;3.10;1.45;;;;;;;7.64;100.00;99821.94;5343211;27;20028;-81
2022/09/27 06:27:27;;;;;;;2.90;1.35;;;;;;;7.63;100.00;99814.13;5343772;27;20028;-80
2022/09/27 06:29:58;;;;;;;2.67;1.90;;;;;;;7.56;100.00;99819.19;5350577;27;20016;-81
2022/09/27 06:32:30;;;;;;;3.55;1.38;;;;;;;7.64;100.00;99816.63;5349949;27;20111;-81
2022/09/27 06:35:04;;;;;;;3.28;1.90;;;;;;;7.56;100.00;99806.75;5331053;27;20526;-80
2022/09/27 06:37:35;;;;;;;3.03;1.80;;;;;;;7.61;100.00;99822.25;5348601;27;20380;-81
2022/09/27 06:40:08;;;;;;;2.53;1.83;;;;;;;7.54;100.00;99819.34;5348733;27;20027;-81
2022/09/27 06:42:39;;;;;;;3.75;2.17;;;;;;;7.63;100.00;99822.94;5349797;27;20582;-81
2022/09/27 06:45:11;;;;;;;5.35;2.50;;;;;;;7.62;100.00;99826.56;5345479;27;20440;-81
2022/09/27 06:47:42;;;;;;;5.50;2.90;;;;;;;7.58;100.00;99826.00;5330192;27;20026;-81
2022/09/27 06:50:14;;;;;;;4.78;2.58;;;;;;;7.60;100.00;99828.53;5348431;27;20030;-81
2022/09/27 06:52:47;;;;;;;4.47;2.40;;;;;;;7.63;100.00;99814.97;5349455;27;20019;-81
2022/09/27 06:55:18;;;;;;;5.25;2.97;;;;;;;7.69;100.00;99821.50;5349903;27;20473;-81
2022/09/27 07:00:50;;;;;;;7.47;3.38;;;;;;;7.73;100.00;99821.06;5349327;27;20031;-81
2022/09/27 07:03:26;;;;;;;7.82;3.72;;;;;;;7.80;100.00;99828.41;5349717;27;20029;-81
2022/09/27 07:05:59;;;;;;;;;;;;;;;7.85;100.00;99824.31;5339662;27;20089;-81
2022/09/27 07:08:32;;;;;;;7.68;3.60;;;;;;;7.86;100.00;99825.16;5349315;27;19907;-81
2022/09/27 07:11:06;;;;;;;7.63;3.72;;;;;;;7.87;100.00;99834.78;5348643;27;20018;-81
2022/09/27 07:13:41;;;;;;;4.68;3.50;;;;;;;7.90;100.00;99819.38;5349358;27;20047;-81
2022/09/27 07:16:13;;;;;;;6.38;3.78;;;;;;;7.97;100.00;99832.09;5349083;27;20022;-81
2022/09/27 07:18:47;;;;;;;8.10;3.88;;;;;;;8.13;100.00;99826.94;5348993;27;20024;-81
2022/09/27 07:21:18;;;;;;;6.80;4.32;;;;;;;8.10;100.00;99833.38;5325863;27;20032;-81
2022/09/27 07:23:50;;;;;;;7.22;4.22;;;;;;;8.18;100.00;99834.44;5327373;28;20039;-80
2022/09/27 07:26:21;;;;;;;6.40;3.90;;;;;;;8.24;100.00;99836.47;5327767;28;20021;-81
2022/09/27 07:28:53;;;;;;;6.25;4.13;;;;;;;8.25;100.00;99848.78;5326658;28;20106;-80
2022/09/27 07:31:24;;;;;;;6.32;4.25;;;;;;;8.21;100.00;99834.16;5327413;28;20052;-81
2022/09/27 07:33:55;;;;;;;9.57;3.97;;;;;;;8.20;100.00;99846.56;5326812;28;20397;-81
2022/09/27 07:36:27;;;;;;;4.90;4.25;;;;;;;8.24;100.00;99839.13;5327474;28;20020;-81
2022/09/27 07:38:58;;;;;;;9.45;5.47;;;;;;;8.15;100.00;99840.88;5326548;28;20016;-81
2022/09/27 07:41:30;;;;;;;9.93;5.35;;;;;;;8.20;100.00;99840.44;5346464;27;20118;-80
2022/09/27 07:44:02;;;;;;;8.15;4.85;;;;;;;8.22;100.00;99844.63;5348324;27;20047;-81
2022/09/27 07:46:33;;;;;;;8.63;5.38;;;;;;;8.22;100.00;99835.81;5348327;27;20020;-80
2022/09/27 07:49:05;;;;;;;8.20;5.53;;;;;;;8.26;100.00;99837.19;5348041;27;20019;-80
2022/09/27 07:51:36;;;;;;;7.65;6.00;;;;;;;8.30;100.00;99844.69;5348871;27;20043;-81
2022/09/27 07:54:08;;;;;;;8.57;6.00;;;;;;;8.28;100.00;99851.97;5347742;27;20024;-80
2022/09/27 07:56:39;;;;;;;9.18;6.93;;;;;;;8.28;100.00;99851.97;5348608;27;20389;-81
2022/09/27 07:59:10;;;;;;;9.75;7.10;;;;;;;8.27;100.00;99860.91;5348007;27;20028;-80
2022/09/27 08:01:42;;;;;;;9.52;7.65;;;;;;;8.29;100.00;99858.97;5348076;27;20036;-81
2022/09/27 08:04:13;;;;;;;10.38;7.65;;;;;;;8.30;100.00;99852.66;5346676;27;20406;-81
2022/09/27 08:06:44;;;;;;;14.45;8.75;;;;;;;8.32;100.00;99863.13;5348346;27;20424;-80
2022/09/27 08:09:16;;;;;;;9.45;7.57;;;;;;;8.36;100.00;99859.19;5346755;27;20102;-81
2022/09/27 08:11:47;;;;;;;12.65;8.20;;;;;;;8.43;100.00;99872.72;5334693;27;20020;-81
2022/09/27 08:14:19;;;;;;;10.90;9.27;;;;;;;8.44;100.00;99874.41;5326337;28;20064;-80
2022/09/27 08:16:51;;;;;;;11.40;8.60;;;;;;;8.50;100.00;99873.78;5326669;28;20016;-80
2022/09/27 08:19:22;;;;;;;17.60;9.95;;;;;;;8.58;100.00;99876.53;5308181;28;20020;-81
2022/09/27 08:21:56;;;;;;;11.13;9.65;;;;;;;8.60;100.00;99871.88;5325651;28;20024;-80
2022/09/27 08:24:27;;;;;;;13.48;9.93;;;;;;;8.61;100.00;99857.63;5339128;27;20488;-80
2022/09/27 08:26:59;;;;;;;13.30;11.48;;;;;;;8.72;100.00;99869.84;5328873;27;20023;-80
2022/09/27 08:29:30;;;;;;;14.00;11.60;;;;;;;8.71;100.00;99873.47;5347482;27;20014;-80
2022/09/27 08:32:02;;;;;;;18.20;11.23;;;;;;;8.80;100.00;99875.22;5347627;27;20480;-80
2022/09/27 08:34:33;;;;;;;14.20;12.38;;;;;;;8.81;100.00;99863.56;5347432;27;20024;-81
2022/09/27 08:37:05;;;;;;;16.08;12.68;;;;;;;8.76;100.00;99876.50;5347307;27;20027;-80
2022/09/27 08:39:36;;;;;;;14.68;12.85;;;;;;;8.80;100.00;99866.38;5347670;27;20061;-80
2022/09/27 08:42:11;;;;;;;14.25;12.68;;;;;;;8.75;100.00;99861.56;5347071;27;20027;-80
2022/09/27 08:45:01;;;;;;;15.25;13.43;;;;;;;8.86;100.00;99863.13;5346310;27;20377;-80
2022/09/27 08:47:37;;;;;;;16.75;14.40;;;;;;;8.81;100.00;99858.25;5328707;27;20032;-80
2022/09/27 08:50:21;;;;;;;18.27;14.43;;;;;;;8.91;100.00;99873.31;5347474;27;20016;-80
2022/09/27 08:53:04;;;;;;;18.45;13.73;;;;;;;8.93;100.00;99866.81;5350637;27;20027;-79
2022/09/27 08:55:49;;;;;;;19.42;15.02;;;;;;;9.12;100.00;99873.78;5351742;27;20111;-80
2022/09/27 08:58:34;;;;;;;19.45;14.98;;;;;;;9.11;100.00;99871.28;5352836;27;20027;-79
2022/09/27 09:01:13;;;;;;;20.10;16.13;;;;;;;9.11;100.00;99869.44;5351231;27;20028;-80
2022/09/27 09:03:59;;;;;;;16.83;14.90;;;;;;;9.14;100.00;99865.66;5347434;27;20015;-80
2022/09/27 09:06:41;;;;;;;19.73;16.23;;;;;;;9.13;100.00;99863.97;5328959;27;20435;-80
2022/09/27 09:09:26;;;;;;;19.95;15.93;;;;;;;9.21;100.00;99872.81;5346407;27;20028;-80
2022/09/27 09:15:55;;;;;;;14.77;13.27;;;;;;;9.22;100.00;99876.31;5347095;27;20401;-80
2022/09/27 09:18:37;;;;;;;15.38;13.77;;;;;;;9.35;100.00;99883.91;5347113;27;20069;-80
2022/09/27 09:21:33;;;;;;;22.58;15.50;;;;;;;9.49;100.00;99880.63;5344482;27;20036;-80
2022/09/27 09:24:16;;;;;;;19.17;14.93;;;;;;;9.54;100.00;99885.50;5330713;27;20457;-80
2022/09/27 09:27:01;;;;;;;18.67;15.68;;;;;;;9.55;100.00;99879.16;5346180;27;20539;-81
2022/09/27 09:30:01;;;;;;;18.17;16.08;;;;;;;9.62;100.00;99885.50;5346666;27;20054;-81
2022/09/27 09:33:10;;;;;;;20.90;17.08;;;;;;;9.57;100.00;99895.81;5346570;27;20059;-80
2022/09/27 09:35:51;;;;;;;20.50;17.60;;;;;;;9.42;100.00;99888.41;5346946;27;20036;-80
2022/09/27 09:38:32;;;;;;;20.50;18.30;;;;;;;9.35;100.00;99890.03;5346286;27;20055;-80
2022/09/27 09:41:27;;;;;;;19.77;17.60;;;;;;;9.55;100.00;99889.81;5346431;27;20057;-80
2022/09/27 09:44:16;;;;;;;21.25;19.08;;;;;;;9.49;100.00;99888.63;5346174;27;20020;-80
2022/09/27 09:46:51;;;;;;;21.38;18.05;;;;;;;9.44;100.00;99889.09;5347186;27;20043;-80
2022/09/27 09:49:41;;;;;;;22.50;18.23;;;;;;;9.41;100.00;99896.56;5346658;27;20452;-80
2022/09/27 09:52:18;;;;;;;17.85;15.85;;;;;;;9.26;100.00;99894.47;5346396;27;20019;-80
2022/09/27 09:55:05;;;;;;;15.93;14.35;;;;;;;9.25;100.00;99891.97;5346111;27;20043;-80
2022/09/27 09:57:42;;;;;;;;;;;;;;;9.35;100.00;99900.69;5346786;27;20019;-80
2022/09/27 10:00:16;;;;;;;16.35;12.57;;;;;;;9.44;100.00;99898.91;5346198;27;19996;-80
2022/09/27 10:02:51;;;;;;;13.82;11.80;;;;;;;9.54;100.00;99896.16;5346744;27;20031;-80
2022/09/27 10:05:25;;;;;;;9.40;7.47;;;;;;;9.45;100.00;99896.09;5346298;27;20036;-80
2022/09/27 10:07:59;;;;;;;7.50;6.15;;;;;;;9.31;100.00;99894.03;5327918;27;20470;-80
2022/09/27 10:10:30;;;;;;;8.05;4.57;;;;;;;9.29;100.00;99898.63;5336090;27;20295;-80
2022/09/27 10:13:03;;;;;;;8.02;4.90;;;;;;;9.22;100.00;99900.25;5325106;28;20031;-80
2022/09/27 10:15:35;;;;;;;5.20;4.60;;;;;;;9.22;100.00;99881.63;5323772;28;20025;-80
2022/09/27 10:18:14;;;;;;;7.45;3.70;;;;;;;9.21;100.00;99895.94;5324676;28;20024;-80
2022/09/27 10:20:51;;;;;;;7.55;3.22;;;;;;;9.16;100.00;99891.09;5306113;28;20081;-80
2022/09/27 10:23:24;;;;;;;4.35;2.97;;;;;;;9.10;100.00;99894.38;5324499;28;20103;-80
2022/09/27 10:25:58;;;;;;;5.47;2.03;;;;;;;9.00;100.00;99891.81;5339335;27;20028;-81
2022/09/27 10:28:40;;;;;;;4.03;1.83;;;;;;;9.00;100.00;99893.66;5348295;27;20508;-80
2022/09/27 10:31:16;;;;;;;4.25;1.95;;;;;;;9.05;100.00;99899.34;5349826;27;20063;-80
2022/09/27 10:33:58;;;;;;;2.42;1.30;;;;;;;9.07;100.00;99900.84;5349590;27;20023;-81
2022/09/27 10:36:34;;;;;;;2.55;1.15;;;;;;;9.07;100.00;99903.50;5349670;27;20066;-81
2022/09/27 10:39:18;;;;;;;4.70;1.20;;;;;;;9.17;100.00;99913.19;5349126;27;20016;-81
2022/09/27 10:41:49;;;;;;;3.17;0.98;;;;;;;9.09;100.00;99906.84;5349486;27;20078;-81
2022/09/27 10:44:26;;;;;;;2.75;0.80;;;;;;;9.03;100.00;99898.66;5349723;27;20027;-81
2022/09/27 10:47:05;;;;;;;2.35;0.73;;;;;;;9.05;100.00;99908.16;5345161;27;20024;-81
2022/09/27 10:49:40;;;;;;;3.45;0.90;;;;;;;9.15;100.00;99904.53;5309398;28;20032;-81
2022/09/27 10:52:17;;;;;;;2.70;0.80;;;;;;;9.30;100.00;99900.31;5327794;28;20077;-81
2022/09/27 10:55:00;;;;;;;;;;;;;;;9.52;100.00;99906.09;5341121;27;20045;-81
2022/09/27 10:57:31;;;;;;;1.90;0.95;;;;;;;9.40;100.00;99903.72;5349471;27;20410;-80
2022/09/27 11:00:07;;;;;;;4.95;1.10;;;;;;;9.42;100.00;99904.38;5349709;27;20055;-81
2022/09/27 11:02:39;;;;;;;5.15;1.40;;;;;;;9.46;100.00;99910.22;5349138;27;20023;-81
2022/09/27 11:05:14;;;;;;;3.90;1.10;;;;;;;9.38;100.00;99908.38;5348910;27;20075;-80
2022/09/27 11:07:51;;;;;;;2.40;0.90;;;;;;;9.34;100.00;99900.84;5349113;27;20073;-81
2022/09/27 11:10:27;;;;;;;2.50;0.80;;;;;;;9.38;100.00;99896.84;5347328;27;20465;-81
2022/09/27 11:13:18;;;;;;;2.58;0.90;;;;;;;9.57;100.00;99901.13;5348308;27;20089;-80
2022/09/27 11:15:55;;;;;;;2.33;0.90;;;;;;;9.78;100.00;99900.72;5348750;27;20031;-80
2022/09/27 11:18:49;;;;;;;1.33;0.60;;;;;;;10.08;100.00;99887.84;5348884;27;20024;-81
2022/09/27 11:21:35;;;;;;;1.90;0.63;;;;;;;10.39;100.00;99885.44;5348668;27;20078;-81
2022/09/27 11:24:36;;;;;;;2.20;0.50;;;;;;;10.71;100.00;99873.13;5348320;27;20327;-81
2022/09/27 11:27:44;;;;;;;1.50;0.80;;;;;;;11.38;100.00;99880.03;5348600;27;20338;-81
2022/09/27 11:30:20;;;;;;;0.68;0.40;;;;;;;12.15;100.00;99864.22;5348844;27;20072;-81
2022/09/27 11:33:17;;;;;;;1.58;1.05;;;;;;;12.97;100.00;99865.41;5348824;27;20465;-81
2022/09/27 11:36:09;;;;;;;1.95;0.50;;;;;;;13.15;100.00;99857.88;5349150;27;20032;-81
2022/09/27 11:39:03;;;;;;;2.47;0.50;;;;;;;13.73;100.00;99855.41;5330499;27;20014;-80
2022/09/27 11:41:52;;;;;;;1.38;0.52;;;;;;;13.63;100.00;99854.03;5352621;27;20047;-80
2022/09/27 11:44:34;;;;;;;1.10;0.60;;;;;;;13.50;100.00;99854.66;5351510;27;20020;-80
2022/09/27 11:47:17;;;;;;;2.22;0.90;;;;;;;14.04;100.00;99858.84;5351911;27;20031;-80
2022/09/27 11:50:23;;;;;;;1.05;0.40;;;;;;;14.14;100.00;99849.47;5352880;27;20024;-80
2022/09/27 11:53:18;;;;;;;0.93;0.50;;;;;;;14.43;100.00;99852.22;5347928;27;20085;-80
2022/09/27 11:56:21;;;;;;;1.70;0.50;;;;;;;14.84;100.00;99865.03;5347211;27;20020;-80
2022/09/27 11:59:08;;;;;;;1.45;0.70;;;;;;;14.79;100.00;99854.84;5336142;27;20093;-80
2022/09/27 12:01:50;;;;;;;1.35;0.75;;;;;;;14.77;100.00;99856.09;5347640;27;20035;-80
2022/09/27 12:04:41;;;;;;;1.05;0.50;;;;;;;15.39;100.00;99851.75;5347863;27;20482;-80
2022/09/27 12:07:38;;;;;;;1.85;0.63;;;;;;;16.20;100.00;99849.25;5347684;27;20051;-80
2022/09/27 12:10:15;;;;;;;1.33;0.45;;;;;;;16.89;100.00;99847.25;5347237;27;20382;-80
2022/09/27 12:12:53;;;;;;;2.80;0.70;;;;;;;16.85;100.00;99851.41;5344792;27;20024;-80
2022/09/27 12:15:32;;;;;;;1.00;0.50;;;;;;;16.60;100.00;99843.91;5347802;27;20467;-80
2022/09/27 12:18:28;;;;;;;3.72;0.77;;;;;;;16.91;100.00;99850.56;5347341;27;20016;-80
2022/09/27 12:21:03;;;;;;;2.70;1.40;;;;;;;17.01;100.00;99844.75;5347425;27;20556;-80
2022/09/27 12:23:42;;;;;;;2.22;0.50;;;;;;;16.82;100.00;99847.22;5346861;27;20072;-80
2022/09/27 12:26:36;;;;;;;1.63;0.45;;;;;;;16.65;100.00;99845.97;5347721;27;20032;-80
2022/09/27 12:29:20;;;;;;;1.65;0.57;;;;;;;16.58;100.00;99834.38;5349543;27;20477;-79